Time;durP1;ratioP1;P1;durP2;ratioP2;P2;SDS_P1;SDS_P2;PMS_P1;PMS_P2;Temp;Humidity;BMP_temperature;BMP_pressure;BME280_temperature;BME280_humidity;BME280_pressure;Samples;Min_cycle;Max_cycle;Signal;HPM_P1;HPM_P2
2023/07/05 00:00:11;;;;;;;3.30;1.00;;;;;;;;;;8334864;28;20020;-58
2023/07/05 00:04:11;;;;;;;1.80;0.98;;;;;;;;;;8334038;28;20877;-58
2023/07/05 00:08:12;;;;;;;1.33;1.10;;;;;;;;;;8322643;28;20466;-58
2023/07/05 00:12:12;;;;;;;0.80;0.80;;;;;;;;;;8336447;28;20056;-58
2023/07/05 00:16:12;;;;;;;1.85;0.95;;;;;;;;;;8332624;28;20044;-58
2023/07/05 00:20:12;;;;;;;1.25;0.90;;;;;;;;;;8337199;28;20029;-58
2023/07/05 00:24:15;;;;;;;2.15;1.05;;;;;;;;;;8331191;28;20950;-58
2023/07/05 00:28:15;;;;;;;1.20;0.90;;;;;;;;;;8335550;28;20028;-59
2023/07/05 00:32:15;;;;;;;1.83;1.17;;;;;;;;;;8335596;28;20043;-58
2023/07/05 00:36:15;;;;;;;2.15;1.00;;;;;;;;;;8339583;28;20524;-59
2023/07/05 00:40:16;;;;;;;1.40;0.90;;;;;;;;;;8340800;28;20021;-58
2023/07/05 00:44:16;;;;;;;1.17;0.70;;;;;;;;;;8341907;28;20033;-59
2023/07/05 00:48:17;;;;;;;0.90;0.90;;;;;;;;;;8339640;28;20283;-59
2023/07/05 00:52:18;;;;;;;0.88;0.88;;;;;;;;;;8342579;28;20298;-60
2023/07/05 00:56:21;;;;;;;2.20;1.20;;;;;;;;;;8338484;28;20028;-59
2023/07/05 01:00:21;;;;;;;2.50;0.93;;;;;;;;;;8338323;28;20370;-59
2023/07/05 01:04:22;;;;;;;1.65;1.08;;;;;;;;;;8341211;28;20032;-58
2023/07/05 01:08:23;;;;;;;1.23;1.00;;;;;;;;;;8322734;28;20154;-59
2023/07/05 01:12:42;;;;;;;1.10;0.95;;;;;;;;;;8341002;28;20264;-59
2023/07/05 01:17:07;;;;;;;3.03;1.10;;;;;;;;;;8337876;28;20041;-60
2023/07/05 01:21:22;;;;;;;1.27;1.05;;;;;;;;;;8340401;28;20067;-58
2023/07/05 01:25:42;;;;;;;1.25;0.95;;;;;;;;;;8337847;28;20492;-59
2023/07/05 01:29:45;;;;;;;1.10;1.00;;;;;;;;;;8339536;28;20671;-59
2023/07/05 01:33:54;;;;;;;1.55;1.30;;;;;;;;;;8338881;28;20040;-59
2023/07/05 01:37:55;;;;;;;2.28;1.10;;;;;;;;;;8337117;28;20669;-59
2023/07/05 01:41:55;;;;;;;1.30;1.20;;;;;;;;;;8338337;28;20122;-60
2023/07/05 01:46:14;;;;;;;1.38;1.10;;;;;;;;;;8338172;28;20102;-59
2023/07/05 01:50:22;;;;;;;1.13;1.02;;;;;;;;;;8340736;28;20337;-59
2023/07/05 01:54:27;;;;;;;1.65;1.17;;;;;;;;;;8338068;28;20541;-59
2023/07/05 01:58:29;;;;;;;1.10;1.00;;;;;;;;;;8339977;28;20013;-59
2023/07/05 02:02:33;;;;;;;1.50;1.20;;;;;;;;;;8339300;28;20041;-59
2023/07/05 02:06:35;;;;;;;3.38;1.23;;;;;;;;;;8335372;28;20073;-58
2023/07/05 02:10:36;;;;;;;2.65;1.30;;;;;;;;;;8337729;28;20025;-59
2023/07/05 02:14:36;;;;;;;1.30;1.05;;;;;;;;;;8335298;28;20553;-58
2023/07/05 02:18:36;;;;;;;2.70;1.07;;;;;;;;;;8335749;28;20809;-59
2023/07/05 02:22:36;;;;;;;1.17;1.08;;;;;;;;;;8339197;28;20800;-59
2023/07/05 02:26:36;;;;;;;1.42;1.02;;;;;;;;;;8335620;28;20109;-60
2023/07/05 02:30:40;;;;;;;3.58;1.10;;;;;;;;;;8336059;28;20474;-59
2023/07/05 02:34:41;;;;;;;1.50;1.33;;;;;;;;;;8339486;28;20032;-59
2023/07/05 02:38:41;;;;;;;1.40;1.15;;;;;;;;;;8336351;28;20470;-59
2023/07/05 02:42:41;;;;;;;1.85;1.08;;;;;;;;;;8337180;28;20694;-59
2023/07/05 02:46:42;;;;;;;2.97;1.08;;;;;;;;;;8336077;28;20034;-59
2023/07/05 02:50:42;;;;;;;1.67;1.20;;;;;;;;;;8337177;28;20031;-59
2023/07/05 02:54:42;;;;;;;3.80;1.02;;;;;;;;;;8335149;28;20048;-59
2023/07/05 02:58:43;;;;;;;3.20;1.30;;;;;;;;;;8333275;28;20073;-59
2023/07/05 03:02:43;;;;;;;3.40;1.30;;;;;;;;;;8336647;28;20516;-59
2023/07/05 03:06:43;;;;;;;1.70;1.10;;;;;;;;;;8335562;28;20025;-59
2023/07/05 03:10:43;;;;;;;2.17;1.20;;;;;;;;;;8335099;28;20282;-60
2023/07/05 03:14:44;;;;;;;2.20;1.20;;;;;;;;;;8330141;28;20109;-59
2023/07/05 03:18:44;;;;;;;1.50;1.10;;;;;;;;;;8332224;28;20125;-58
2023/07/05 03:22:44;;;;;;;2.07;1.20;;;;;;;;;;8334886;28;20064;-58
2023/07/05 03:26:44;;;;;;;2.28;1.30;;;;;;;;;;8334479;28;20033;-58
2023/07/05 03:30:51;;;;;;;3.38;1.10;;;;;;;;;;8336271;28;20040;-58
2023/07/05 03:34:51;;;;;;;2.40;1.30;;;;;;;;;;8336442;28;20590;-59
2023/07/05 03:38:52;;;;;;;3.58;1.40;;;;;;;;;;8334198;28;20025;-59
2023/07/05 03:42:52;;;;;;;2.58;1.20;;;;;;;;;;8335940;28;20124;-58
2023/07/05 03:46:52;;;;;;;3.45;1.15;;;;;;;;;;8333710;28;20550;-59
2023/07/05 03:50:56;;;;;;;1.52;1.30;;;;;;;;;;8318914;28;20435;-59
2023/07/05 03:54:56;;;;;;;;;;;;;;;;;;8336560;28;20147;-59
2023/07/05 03:58:57;;;;;;;1.50;1.15;;;;;;;;;;8337011;28;20346;-59
2023/07/05 04:02:57;;;;;;;2.28;1.25;;;;;;;;;;8333626;28;20028;-59
2023/07/05 04:06:59;;;;;;;1.57;1.33;;;;;;;;;;8334763;28;20049;-58
2023/07/05 04:10:59;;;;;;;3.75;1.52;;;;;;;;;;8341137;28;20286;-59
2023/07/05 04:14:59;;;;;;;1.65;1.40;;;;;;;;;;8344683;28;20108;-60
2023/07/05 04:18:59;;;;;;;1.55;1.30;;;;;;;;;;8340768;28;20036;-59
2023/07/05 04:23:00;;;;;;;2.20;1.60;;;;;;;;;;8340757;28;20039;-59
2023/07/05 04:27:00;;;;;;;1.50;1.40;;;;;;;;;;8340283;28;20118;-59
2023/07/05 04:31:00;;;;;;;1.98;1.48;;;;;;;;;;8340168;28;20049;-59
2023/07/05 04:35:01;;;;;;;3.95;1.50;;;;;;;;;;8341650;28;20036;-59
2023/07/05 04:39:01;;;;;;;2.85;1.80;;;;;;;;;;8340400;28;20067;-59
2023/07/05 04:43:01;;;;;;;2.53;1.77;;;;;;;;;;8339064;28;20099;-59
2023/07/05 04:47:01;;;;;;;3.92;1.73;;;;;;;;;;8336673;28;20136;-59
2023/07/05 04:51:02;;;;;;;2.65;1.98;;;;;;;;;;8337818;28;20094;-59
2023/07/05 04:55:03;;;;;;;2.50;2.10;;;;;;;;;;8342203;28;20036;-59
2023/07/05 04:59:04;;;;;;;9.50;2.50;;;;;;;;;;8338592;28;20164;-59
2023/07/05 05:03:04;;;;;;;2.20;2.00;;;;;;;;;;8338686;28;20029;-59
2023/07/05 05:07:05;;;;;;;3.58;2.13;;;;;;;;;;8335414;28;20077;-59
2023/07/05 05:11:05;;;;;;;4.45;2.33;;;;;;;;;;8336708;28;20066;-59
2023/07/05 05:15:06;;;;;;;5.18;2.40;;;;;;;;;;8337789;28;20032;-60
2023/07/05 05:19:06;;;;;;;3.88;2.22;;;;;;;;;;8338357;28;20013;-59
2023/07/05 05:23:06;;;;;;;5.57;2.17;;;;;;;;;;8336689;28;20028;-59
2023/07/05 05:27:07;;;;;;;5.95;2.10;;;;;;;;;;8336217;28;20040;-58
2023/07/05 05:31:08;;;;;;;3.00;1.90;;;;;;;;;;8337820;28;20065;-60
2023/07/05 05:35:09;;;;;;;3.83;2.10;;;;;;;;;;8338915;28;20295;-59
2023/07/05 05:39:09;;;;;;;3.13;1.88;;;;;;;;;;8332531;28;20654;-60
2023/07/05 05:43:10;;;;;;;3.90;2.20;;;;;;;;;;8336773;28;20139;-60
2023/07/05 05:47:10;;;;;;;2.83;2.50;;;;;;;;;;8336873;28;20064;-59
2023/07/05 05:51:10;;;;;;;6.50;2.60;;;;;;;;;;8337058;28;20028;-60
2023/07/05 05:55:10;;;;;;;7.83;2.73;;;;;;;;;;8338751;28;20060;-59
2023/07/05 05:59:11;;;;;;;4.38;2.67;;;;;;;;;;8340012;28;20025;-60
2023/07/05 06:03:11;;;;;;;3.78;2.72;;;;;;;;;;8337734;28;20047;-60
2023/07/05 06:07:11;;;;;;;6.00;3.33;;;;;;;;;;8334688;28;20772;-60
2023/07/05 06:11:11;;;;;;;7.88;3.30;;;;;;;;;;8334179;28;20079;-60
2023/07/05 06:15:12;;;;;;;7.20;3.40;;;;;;;;;;8336552;28;20044;-59
2023/07/05 06:19:12;;;;;;;4.82;3.30;;;;;;;;;;8316771;28;20028;-59
2023/07/05 06:23:13;;;;;;;7.10;3.80;;;;;;;;;;8337716;28;20907;-60
2023/07/05 06:27:13;;;;;;;7.90;3.40;;;;;;;;;;8336337;28;20036;-60
2023/07/05 06:31:16;;;;;;;6.60;3.42;;;;;;;;;;8331709;28;20283;-59
2023/07/05 06:35:16;;;;;;;4.93;3.60;;;;;;;;;;8335280;28;20036;-60
2023/07/05 06:39:16;;;;;;;5.00;3.15;;;;;;;;;;8335678;28;20173;-60
2023/07/05 06:43:16;;;;;;;8.67;3.20;;;;;;;;;;8335950;28;20039;-60
2023/07/05 06:47:16;;;;;;;6.40;3.17;;;;;;;;;;8337553;28;20032;-60
2023/07/05 06:51:17;;;;;;;3.85;3.17;;;;;;;;;;8334402;28;20762;-60
2023/07/05 06:55:17;;;;;;;4.72;3.08;;;;;;;;;;8336834;28;20122;-60
2023/07/05 06:59:17;;;;;;;4.78;2.95;;;;;;;;;;8332300;28;20035;-60
2023/07/05 07:03:17;;;;;;;5.15;3.25;;;;;;;;;;8334512;28;20114;-60
2023/07/05 07:07:17;;;;;;;4.95;3.15;;;;;;;;;;8333095;28;20027;-60
2023/07/05 07:11:18;;;;;;;5.70;2.85;;;;;;;;;;8335353;28;20041;-60
2023/07/05 07:15:18;;;;;;;8.05;3.10;;;;;;;;;;8314244;28;20054;-60
2023/07/05 07:19:18;;;;;;;5.47;3.30;;;;;;;;;;8334759;28;20052;-60
2023/07/05 07:23:18;;;;;;;3.65;2.95;;;;;;;;;;8334543;28;20366;-60
2023/07/05 07:27:18;;;;;;;4.28;2.78;;;;;;;;;;8332611;28;20111;-60
2023/07/05 07:31:20;;;;;;;4.00;2.97;;;;;;;;;;8335821;28;20140;-59
2023/07/05 07:35:20;;;;;;;5.10;2.92;;;;;;;;;;8333108;28;20516;-60
2023/07/05 07:39:20;;;;;;;3.67;2.85;;;;;;;;;;8335041;28;20028;-60
2023/07/05 07:43:20;;;;;;;6.43;2.95;;;;;;;;;;8334808;28;20028;-60
2023/07/05 07:47:21;;;;;;;7.88;2.72;;;;;;;;;;8331852;28;20029;-59
2023/07/05 07:51:23;;;;;;;3.55;2.70;;;;;;;;;;8333319;28;20044;-60
2023/07/05 07:55:23;;;;;;;4.25;2.70;;;;;;;;;;8332391;28;20035;-60
2023/07/05 07:59:23;;;;;;;4.70;2.72;;;;;;;;;;8330522;28;20375;-60
2023/07/05 08:03:24;;;;;;;4.70;2.55;;;;;;;;;;8333268;28;20086;-60
2023/07/05 08:07:24;;;;;;;5.87;2.67;;;;;;;;;;8332389;28;20378;-60
2023/07/05 08:11:24;;;;;;;4.22;2.38;;;;;;;;;;8334453;28;20447;-60
2023/07/05 08:15:24;;;;;;;5.35;2.90;;;;;;;;;;8332100;28;20303;-60
2023/07/05 08:19:25;;;;;;;3.60;2.40;;;;;;;;;;8331327;28;20067;-60
2023/07/05 08:23:25;;;;;;;4.60;2.80;;;;;;;;;;8331724;28;20037;-60
2023/07/05 08:27:25;;;;;;;6.20;2.50;;;;;;;;;;8331724;28;20094;-60
2023/07/05 08:31:25;;;;;;;4.70;2.17;;;;;;;;;;8333294;28;20045;-60
2023/07/05 08:35:26;;;;;;;4.63;2.13;;;;;;;;;;8315334;28;20060;-60
2023/07/05 08:39:26;;;;;;;5.10;2.42;;;;;;;;;;8314268;28;20021;-60
2023/07/05 08:43:33;;;;;;;3.85;2.30;;;;;;;;;;8332550;28;20032;-60
2023/07/05 08:47:41;;;;;;;2.72;2.20;;;;;;;;;;8332035;28;20048;-60
2023/07/05 08:51:42;;;;;;;5.38;2.40;;;;;;;;;;8333230;28;20603;-60
2023/07/05 08:56:06;;;;;;;3.13;2.00;;;;;;;;;;8331655;28;20492;-60
2023/07/05 09:00:11;;;;;;;3.00;1.65;;;;;;;;;;8337865;28;20396;-60
2023/07/05 09:04:12;;;;;;;3.45;1.80;;;;;;;;;;8335949;28;20384;-59
2023/07/05 09:08:12;;;;;;;6.38;1.80;;;;;;;;;;8340542;28;20597;-60
2023/07/05 09:12:20;;;;;;;7.15;2.20;;;;;;;;;;8339211;28;20046;-60
2023/07/05 09:16:20;;;;;;;2.00;1.60;;;;;;;;;;8334820;28;20040;-60
2023/07/05 09:20:31;;;;;;;6.97;2.00;;;;;;;;;;8338080;28;20029;-60
2023/07/05 09:24:34;;;;;;;5.40;1.60;;;;;;;;;;8337538;28;20868;-60
2023/07/05 09:28:41;;;;;;;4.25;1.80;;;;;;;;;;8338256;28;20033;-59
2023/07/05 09:32:42;;;;;;;2.22;1.65;;;;;;;;;;8339308;28;20045;-60
2023/07/05 09:36:43;;;;;;;4.35;2.00;;;;;;;;;;8336725;28;20040;-60
2023/07/05 09:40:48;;;;;;;4.25;1.80;;;;;;;;;;8333595;28;20082;-65
2023/07/05 09:44:49;;;;;;;7.47;1.60;;;;;;;;;;8337227;28;20078;-59
2023/07/05 09:48:50;;;;;;;5.37;1.70;;;;;;;;;;8335309;28;20728;-60
2023/07/05 09:52:52;;;;;;;2.38;1.58;;;;;;;;;;8338437;28;20024;-60
2023/07/05 09:56:56;;;;;;;2.33;1.42;;;;;;;;;;8338878;28;20078;-59
2023/07/05 10:00:58;;;;;;;3.92;1.50;;;;;;;;;;8335149;28;20576;-59
2023/07/05 10:05:10;;;;;;;3.30;1.67;;;;;;;;;;8337806;28;20067;-59
2023/07/05 10:09:12;;;;;;;10.55;1.48;;;;;;;;;;8336886;28;20563;-59
2023/07/05 10:13:14;;;;;;;2.58;1.60;;;;;;;;;;8337687;28;20073;-59
2023/07/05 10:17:14;;;;;;;4.33;1.43;;;;;;;;;;8337809;28;21005;-59
2023/07/05 10:21:17;;;;;;;3.10;1.50;;;;;;;;;;8335789;28;20033;-59
2023/07/05 10:25:19;;;;;;;2.67;1.50;;;;;;;;;;8336928;28;20525;-59
2023/07/05 10:29:20;;;;;;;5.85;1.58;;;;;;;;;;8334814;28;20025;-59
2023/07/05 10:33:22;;;;;;;3.38;1.48;;;;;;;;;;8334128;28;20557;-59
2023/07/05 10:37:25;;;;;;;3.15;1.63;;;;;;;;;;8335267;28;20037;-59
2023/07/05 10:41:33;;;;;;;3.00;1.60;;;;;;;;;;8333448;28;20036;-59
2023/07/05 10:45:34;;;;;;;3.20;1.55;;;;;;;;;;8335071;28;20041;-59
2023/07/05 10:49:35;;;;;;;4.53;1.73;;;;;;;;;;8334624;28;20021;-59
2023/07/05 10:53:36;;;;;;;2.30;1.30;;;;;;;;;;8334725;28;20021;-59
2023/07/05 10:57:41;;;;;;;3.50;1.70;;;;;;;;;;8334492;28;20017;-59
2023/07/05 11:01:54;;;;;;;4.00;1.50;;;;;;;;;;8335352;28;20164;-59
2023/07/05 11:05:57;;;;;;;3.90;1.75;;;;;;;;;;8330795;28;20032;-59
2023/07/05 11:10:01;;;;;;;4.32;1.70;;;;;;;;;;8333693;28;20202;-59
2023/07/05 11:14:03;;;;;;;3.85;1.67;;;;;;;;;;8331072;28;20480;-59
2023/07/05 11:18:06;;;;;;;1.98;1.30;;;;;;;;;;8331412;28;20683;-59
2023/07/05 11:22:06;;;;;;;;;;;;;;;;;;8333879;28;20882;-59
2023/07/05 11:26:06;;;;;;;4.55;1.77;;;;;;;;;;8329276;28;19967;-59
2023/07/05 11:30:26;;;;;;;3.60;1.42;;;;;;;;;;8334283;28;20028;-59
2023/07/05 11:34:27;;;;;;;7.72;1.70;;;;;;;;;;8333660;28;20485;-59
2023/07/05 11:38:36;;;;;;;4.40;1.50;;;;;;;;;;8331567;28;20027;-59
2023/07/05 11:42:37;;;;;;;2.88;1.40;;;;;;;;;;8330630;28;20177;-60
2023/07/05 11:46:40;;;;;;;3.70;1.60;;;;;;;;;;8331501;28;20465;-60
2023/07/05 11:50:40;;;;;;;7.22;1.60;;;;;;;;;;8332116;28;20136;-60
2023/07/05 11:54:46;;;;;;;3.72;1.60;;;;;;;;;;8333679;28;20032;-60
2023/07/05 11:58:50;;;;;;;8.13;1.90;;;;;;;;;;8331314;28;20950;-60
2023/07/05 12:02:56;;;;;;;4.30;1.60;;;;;;;;;;8331287;28;20132;-60
2023/07/05 12:06:56;;;;;;;6.32;1.70;;;;;;;;;;8330804;28;20033;-60
2023/07/05 12:11:00;;;;;;;4.35;1.60;;;;;;;;;;8332587;28;20499;-60
2023/07/05 12:15:00;;;;;;;4.13;1.50;;;;;;;;;;8331366;28;20044;-59
2023/07/05 12:19:01;;;;;;;4.07;1.58;;;;;;;;;;8331955;28;20561;-59
2023/07/05 12:23:02;;;;;;;9.65;1.75;;;;;;;;;;8331066;28;20835;-59
2023/07/05 12:27:03;;;;;;;6.40;1.75;;;;;;;;;;8333119;28;20358;-60
2023/07/05 12:31:09;;;;;;;8.18;1.73;;;;;;;;;;8337438;28;20572;-60
2023/07/05 12:35:09;;;;;;;3.50;1.60;;;;;;;;;;8338176;28;20392;-59
2023/07/05 12:39:13;;;;;;;8.55;1.80;;;;;;;;;;8336784;28;20126;-59
2023/07/05 12:43:22;;;;;;;5.10;1.67;;;;;;;;;;8338235;28;20063;-60
2023/07/05 12:47:25;;;;;;;4.13;1.48;;;;;;;;;;8339856;28;20481;-60
2023/07/05 12:51:28;;;;;;;4.53;1.70;;;;;;;;;;8338954;28;20055;-60
2023/07/05 12:55:29;;;;;;;5.47;1.60;;;;;;;;;;8339871;28;20043;-60
2023/07/05 12:59:31;;;;;;;4.93;1.85;;;;;;;;;;8338623;28;20124;-60
2023/07/05 13:03:32;;;;;;;2.83;1.60;;;;;;;;;;8335955;28;20330;-60
2023/07/05 13:07:32;;;;;;;6.65;1.83;;;;;;;;;;8338749;28;20037;-60
2023/07/05 13:11:32;;;;;;;6.23;1.47;;;;;;;;;;8339530;28;20577;-60
2023/07/05 13:15:34;;;;;;;6.18;1.80;;;;;;;;;;8337101;28;20291;-60
2023/07/05 13:19:41;;;;;;;3.40;1.48;;;;;;;;;;8337074;28;20029;-60
2023/07/05 13:23:42;;;;;;;4.35;1.60;;;;;;;;;;8336663;28;20116;-60
2023/07/05 13:27:42;;;;;;;3.67;1.65;;;;;;;;;;8334162;28;20047;-60
2023/07/05 13:31:47;;;;;;;3.85;1.65;;;;;;;;;;8334836;28;20753;-60
2023/07/05 13:35:48;;;;;;;4.65;1.75;;;;;;;;;;8337341;28;20809;-60
2023/07/05 13:39:49;;;;;;;2.20;1.50;;;;;;;;;;8336854;28;20028;-60
2023/07/05 13:43:49;;;;;;;4.88;1.55;;;;;;;;;;8338416;28;20040;-60
2023/07/05 13:47:49;;;;;;;7.10;1.80;;;;;;;;;;8334290;28;20033;-60
2023/07/05 13:51:51;;;;;;;2.40;1.50;;;;;;;;;;8337105;28;20473;-60
2023/07/05 13:55:51;;;;;;;3.20;1.57;;;;;;;;;;8328893;28;20457;-60
2023/07/05 13:59:52;;;;;;;5.37;1.67;;;;;;;;;;8334783;28;20028;-60
2023/07/05 14:03:52;;;;;;;2.70;1.70;;;;;;;;;;8335310;28;20037;-60
2023/07/05 14:07:56;;;;;;;5.50;1.70;;;;;;;;;;8336488;28;20507;-60
2023/07/05 14:11:56;;;;;;;7.32;1.70;;;;;;;;;;8336328;28;23135;-60
2023/07/05 14:15:57;;;;;;;3.05;1.77;;;;;;;;;;8334333;28;20035;-60
2023/07/05 14:19:57;;;;;;;2.55;1.80;;;;;;;;;;8336807;28;20785;-60
2023/07/05 14:23:58;;;;;;;3.05;1.70;;;;;;;;;;8337970;28;20351;-60
2023/07/05 14:27:58;;;;;;;2.58;1.75;;;;;;;;;;8336334;28;20481;-60
2023/07/05 14:31:58;;;;;;;3.20;1.88;;;;;;;;;;8333651;28;20112;-60
2023/07/05 14:35:58;;;;;;;3.92;1.70;;;;;;;;;;8314277;28;20024;-60
2023/07/05 14:39:59;;;;;;;3.40;1.80;;;;;;;;;;8334698;28;20044;-60
2023/07/05 14:43:59;;;;;;;3.63;1.90;;;;;;;;;;8334676;28;20320;-60
2023/07/05 14:48:00;;;;;;;7.75;2.25;;;;;;;;;;8331254;28;21470;-60
2023/07/05 14:52:02;;;;;;;4.00;1.80;;;;;;;;;;8332807;28;20107;-60
2023/07/05 14:56:02;;;;;;;4.18;1.70;;;;;;;;;;8331910;28;20055;-60
2023/07/05 15:00:03;;;;;;;4.10;1.90;;;;;;;;;;8335385;28;20034;-60
2023/07/05 15:04:04;;;;;;;6.20;1.63;;;;;;;;;;8336544;28;20126;-60
2023/07/05 15:08:07;;;;;;;3.53;1.92;;;;;;;;;;8335945;28;20445;-60
2023/07/05 15:12:09;;;;;;;2.58;1.80;;;;;;;;;;8334056;28;20766;-60
2023/07/05 15:16:14;;;;;;;2.92;2.00;;;;;;;;;;8333890;28;20048;-60
2023/07/05 15:20:15;;;;;;;3.10;1.83;;;;;;;;;;8335843;28;20039;-60
2023/07/05 15:24:15;;;;;;;7.05;2.05;;;;;;;;;;8334158;28;20374;-60
2023/07/05 15:28:15;;;;;;;3.33;1.85;;;;;;;;;;8331401;28;20036;-60
2023/07/05 15:32:15;;;;;;;4.72;1.88;;;;;;;;;;8332582;28;20132;-60
2023/07/05 15:36:18;;;;;;;7.57;2.33;;;;;;;;;;8315319;28;20416;-60
2023/07/05 15:40:19;;;;;;;2.97;1.73;;;;;;;;;;8333854;28;20025;-60
2023/07/05 15:44:19;;;;;;;3.30;1.80;;;;;;;;;;8351090;28;20032;-60
2023/07/05 15:48:19;;;;;;;4.13;1.85;;;;;;;;;;8366466;28;20289;-60
2023/07/05 15:52:19;;;;;;;3.22;1.92;;;;;;;;;;8363250;28;20594;-60
2023/07/05 15:56:19;;;;;;;5.22;2.00;;;;;;;;;;8367628;28;20032;-60
2023/07/05 16:00:27;;;;;;;3.05;1.88;;;;;;;;;;8365968;28;20040;-60
2023/07/05 16:04:27;;;;;;;4.10;1.70;;;;;;;;;;8368201;28;20748;-60
2023/07/05 16:08:27;;;;;;;4.43;2.00;;;;;;;;;;8375717;28;20436;-60
2023/07/05 16:12:27;;;;;;;2.20;1.77;;;;;;;;;;8374533;28;20114;-60
2023/07/05 16:16:29;;;;;;;4.18;1.98;;;;;;;;;;8374672;28;20073;-60
2023/07/05 16:20:33;;;;;;;3.92;1.80;;;;;;;;;;8372995;28;20117;-60
2023/07/05 16:24:33;;;;;;;3.17;1.90;;;;;;;;;;8373277;28;20024;-60
2023/07/05 16:28:34;;;;;;;3.47;2.20;;;;;;;;;;8374049;28;20028;-60
2023/07/05 16:32:34;;;;;;;2.37;1.50;;;;;;;;;;8373704;28;20063;-60
2023/07/05 16:36:34;;;;;;;1.92;1.50;;;;;;;;;;8373037;28;20032;-60
2023/07/05 16:40:38;;;;;;;3.72;1.85;;;;;;;;;;8369688;28;20656;-60
2023/07/05 16:44:38;;;;;;;4.00;1.80;;;;;;;;;;8352786;28;20124;-60
2023/07/05 16:48:39;;;;;;;4.93;1.80;;;;;;;;;;8332394;28;20164;-60
2023/07/05 16:52:39;;;;;;;5.68;1.65;;;;;;;;;;8320941;28;20129;-60
2023/07/05 16:56:41;;;;;;;3.47;1.80;;;;;;;;;;8339386;28;20027;-59
2023/07/05 17:00:41;;;;;;;4.93;1.60;;;;;;;;;;8341812;28;20033;-60
2023/07/05 17:04:41;;;;;;;2.60;1.45;;;;;;;;;;8340225;28;20039;-60
2023/07/05 17:08:43;;;;;;;7.17;1.90;;;;;;;;;;8337650;28;20025;-60
2023/07/05 17:12:43;;;;;;;2.08;1.50;;;;;;;;;;8339473;28;20033;-59
2023/07/05 17:16:44;;;;;;;3.38;2.08;;;;;;;;;;8337201;28;20052;-60
2023/07/05 17:20:50;;;;;;;3.92;1.90;;;;;;;;;;8335795;28;20108;-60
2023/07/05 17:24:51;;;;;;;2.85;1.50;;;;;;;;;;8338637;28;20017;-60
2023/07/05 17:28:51;;;;;;;8.30;1.90;;;;;;;;;;8338054;28;20047;-59
2023/07/05 17:32:51;;;;;;;2.95;1.73;;;;;;;;;;8335239;28;20589;-60
2023/07/05 17:36:51;;;;;;;4.07;1.80;;;;;;;;;;8328971;28;20249;-60
2023/07/05 17:40:51;;;;;;;3.58;1.83;;;;;;;;;;8331681;28;20458;-59
2023/07/05 17:44:52;;;;;;;2.92;1.75;;;;;;;;;;8332928;28;20114;-60
2023/07/05 17:48:54;;;;;;;2.58;1.40;;;;;;;;;;8331644;28;20473;-59
2023/07/05 17:52:54;;;;;;;4.35;1.50;;;;;;;;;;8332687;28;20434;-60
2023/07/05 17:56:54;;;;;;;5.25;1.80;;;;;;;;;;8331509;28;20033;-60
2023/07/05 18:00:54;;;;;;;5.45;1.58;;;;;;;;;;8332369;28;20036;-60
2023/07/05 18:04:55;;;;;;;2.53;1.30;;;;;;;;;;8330750;28;20426;-60
2023/07/05 18:08:55;;;;;;;5.00;1.65;;;;;;;;;;8332753;28;20043;-60
2023/07/05 18:12:55;;;;;;;2.83;1.45;;;;;;;;;;8329588;28;20505;-59
2023/07/05 18:16:55;;;;;;;2.47;1.40;;;;;;;;;;8333850;28;20549;-60
2023/07/05 18:20:56;;;;;;;2.85;1.67;;;;;;;;;;8332509;28;20454;-60
2023/07/05 18:24:56;;;;;;;3.55;1.45;;;;;;;;;;8332625;28;20943;-60
2023/07/05 18:28:57;;;;;;;3.15;1.60;;;;;;;;;;8330347;28;20543;-59
2023/07/05 18:32:57;;;;;;;3.42;1.33;;;;;;;;;;8333820;28;20149;-60
2023/07/05 18:36:57;;;;;;;3.45;1.67;;;;;;;;;;8330562;28;20024;-60
2023/07/05 18:41:10;;;;;;;6.65;1.60;;;;;;;;;;8330954;28;20024;-60
2023/07/05 18:45:10;;;;;;;2.72;1.40;;;;;;;;;;8329563;28;20055;-60
2023/07/05 18:49:13;;;;;;;6.28;1.63;;;;;;;;;;8322635;28;20119;-59
2023/07/05 18:53:13;;;;;;;5.65;1.60;;;;;;;;;;8332285;28;20509;-59
2023/07/05 18:57:14;;;;;;;5.85;1.60;;;;;;;;;;8330614;28;20079;-59
2023/07/05 19:01:15;;;;;;;2.22;1.30;;;;;;;;;;8330495;28;20158;-59
2023/07/05 19:05:16;;;;;;;3.55;1.38;;;;;;;;;;8329701;28;20231;-59
2023/07/05 19:09:18;;;;;;;1.95;1.40;;;;;;;;;;8327662;28;20326;-59
2023/07/05 19:13:18;;;;;;;2.88;1.30;;;;;;;;;;8331405;28;20025;-59
2023/07/05 19:17:18;;;;;;;4.87;1.40;;;;;;;;;;8327862;28;20045;-60
2023/07/05 19:21:19;;;;;;;2.08;1.25;;;;;;;;;;8330478;28;20366;-59
2023/07/05 19:25:20;;;;;;;3.90;1.38;;;;;;;;;;8326893;28;20619;-59
2023/07/05 19:29:20;;;;;;;2.95;1.20;;;;;;;;;;8311645;28;20024;-59
2023/07/05 19:33:21;;;;;;;2.83;1.30;;;;;;;;;;8329047;28;20470;-59
2023/07/05 19:37:21;;;;;;;2.58;1.20;;;;;;;;;;8327700;28;20556;-59
2023/07/05 19:41:23;;;;;;;2.25;1.33;;;;;;;;;;8328439;28;20021;-59
2023/07/05 19:45:23;;;;;;;2.20;1.30;;;;;;;;;;8328925;28;20551;-59
2023/07/05 19:49:25;;;;;;;3.20;1.35;;;;;;;;;;8328262;28;20053;-59
2023/07/05 19:53:26;;;;;;;4.60;1.30;;;;;;;;;;8330542;28;20049;-59
2023/07/05 19:57:26;;;;;;;3.45;1.33;;;;;;;;;;8334570;28;20016;-59
2023/07/05 20:01:28;;;;;;;2.25;1.10;;;;;;;;;;8325803;28;20028;-59
2023/07/05 20:05:32;;;;;;;3.42;1.20;;;;;;;;;;8325962;28;20734;-59
2023/07/05 20:09:32;;;;;;;1.77;1.25;;;;;;;;;;8330332;28;20445;-59
2023/07/05 20:13:32;;;;;;;3.20;1.20;;;;;;;;;;8328935;28;20049;-59
2023/07/05 20:17:32;;;;;;;1.88;1.23;;;;;;;;;;8325343;28;20037;-59
2023/07/05 20:21:32;;;;;;;2.65;1.10;;;;;;;;;;8331719;28;20029;-59
2023/07/05 20:25:33;;;;;;;2.10;1.30;;;;;;;;;;8327436;28;20236;-59
2023/07/05 20:29:34;;;;;;;2.22;1.23;;;;;;;;;;8326746;28;20316;-59
2023/07/05 20:33:34;;;;;;;1.42;1.08;;;;;;;;;;8329413;28;20389;-60
2023/07/05 20:37:34;;;;;;;2.65;1.20;;;;;;;;;;8327339;28;20041;-59
2023/07/05 20:41:35;;;;;;;1.98;1.13;;;;;;;;;;8329084;28;20227;-59
2023/07/05 20:45:35;;;;;;;4.53;1.73;;;;;;;;;;8330113;28;20051;-59
2023/07/05 20:49:35;;;;;;;2.13;1.40;;;;;;;;;;8329165;28;20024;-59
2023/07/05 20:53:35;;;;;;;5.82;1.20;;;;;;;;;;8335902;28;20013;-59
2023/07/05 20:57:37;;;;;;;4.35;1.85;;;;;;;;;;8334240;28;20393;-59
2023/07/05 21:01:39;;;;;;;1.70;1.23;;;;;;;;;;8325619;28;20029;-59
2023/07/05 21:05:39;;;;;;;2.78;1.50;;;;;;;;;;8334036;28;20059;-59
2023/07/05 21:09:39;;;;;;;3.70;1.35;;;;;;;;;;8334671;28;20215;-59
2023/07/05 21:13:40;;;;;;;1.77;1.20;;;;;;;;;;8333311;28;20024;-59
2023/07/05 21:17:40;;;;;;;2.70;1.40;;;;;;;;;;8331225;28;20881;-59
2023/07/05 21:21:40;;;;;;;2.15;1.45;;;;;;;;;;8338385;28;20386;-59
2023/07/05 21:25:40;;;;;;;4.57;1.47;;;;;;;;;;8333589;28;20507;-59
2023/07/05 21:29:41;;;;;;;2.75;1.40;;;;;;;;;;8331337;28;20267;-59
2023/07/05 21:33:41;;;;;;;3.35;1.50;;;;;;;;;;8333678;28;20039;-59
2023/07/05 21:37:42;;;;;;;3.40;1.55;;;;;;;;;;8339002;28;20473;-59
2023/07/05 21:41:42;;;;;;;1.55;1.30;;;;;;;;;;8337688;28;20028;-59
2023/07/05 21:45:42;;;;;;;2.25;1.45;;;;;;;;;;8336872;28;20033;-59
2023/07/05 21:49:43;;;;;;;1.40;1.30;;;;;;;;;;8337729;28;20036;-59
2023/07/05 21:53:45;;;;;;;2.80;1.75;;;;;;;;;;8338579;28;20263;-59
2023/07/05 21:57:45;;;;;;;2.38;1.38;;;;;;;;;;8337977;28;20013;-59
2023/07/05 22:01:45;;;;;;;5.38;1.67;;;;;;;;;;8336360;28;20037;-59
2023/07/05 22:05:50;;;;;;;1.52;1.30;;;;;;;;;;8333631;28;20039;-59
2023/07/05 22:09:50;;;;;;;2.17;1.60;;;;;;;;;;8337264;28;20025;-59
2023/07/05 22:13:56;;;;;;;2.33;1.35;;;;;;;;;;8338518;28;20025;-59
2023/07/05 22:17:56;;;;;;;2.10;1.40;;;;;;;;;;8335647;28;20082;-59
2023/07/05 22:21:56;;;;;;;2.90;1.50;;;;;;;;;;8336690;28;20077;-59
2023/07/05 22:25:57;;;;;;;3.03;1.50;;;;;;;;;;8334847;28;20025;-59
2023/07/05 22:29:58;;;;;;;1.90;1.40;;;;;;;;;;8336904;28;20035;-59
2023/07/05 22:33:58;;;;;;;2.85;1.60;;;;;;;;;;8335612;28;20036;-59
2023/07/05 22:37:58;;;;;;;2.58;1.50;;;;;;;;;;8333780;28;20032;-59
2023/07/05 22:41:58;;;;;;;1.50;1.40;;;;;;;;;;8334950;28;20685;-59
2023/07/05 22:46:00;;;;;;;3.85;1.55;;;;;;;;;;8326668;28;20531;-59
2023/07/05 22:50:00;;;;;;;5.30;1.55;;;;;;;;;;8333711;28;20035;-59
2023/07/05 22:54:01;;;;;;;2.38;1.40;;;;;;;;;;8333637;28;20028;-59
2023/07/05 22:58:01;;;;;;;3.72;1.48;;;;;;;;;;8334431;28;20059;-59
2023/07/05 23:02:04;;;;;;;5.85;1.67;;;;;;;;;;8332836;28;20138;-59
2023/07/05 23:06:08;;;;;;;3.80;1.47;;;;;;;;;;8333024;28;20076;-59
2023/07/05 23:10:09;;;;;;;3.88;1.38;;;;;;;;;;8333226;28;20283;-59
2023/07/05 23:14:09;;;;;;;3.80;1.87;;;;;;;;;;8336825;28;20039;-59
2023/07/05 23:18:09;;;;;;;2.55;1.70;;;;;;;;;;8332457;28;20305;-59
2023/07/05 23:22:11;;;;;;;3.95;1.55;;;;;;;;;;8333398;28;20035;-59
2023/07/05 23:26:15;;;;;;;2.58;1.50;;;;;;;;;;8332630;28;20020;-59
2023/07/05 23:30:15;;;;;;;4.25;1.63;;;;;;;;;;8334226;28;20503;-59
2023/07/05 23:34:18;;;;;;;5.38;1.90;;;;;;;;;;8332392;28;20054;-59
2023/07/05 23:38:19;;;;;;;3.63;1.85;;;;;;;;;;8334568;28;20039;-59
2023/07/05 23:42:19;;;;;;;3.30;1.77;;;;;;;;;;8335774;28;20103;-59
2023/07/05 23:46:21;;;;;;;4.57;2.03;;;;;;;;;;8332126;28;20457;-59
2023/07/05 23:50:21;;;;;;;3.90;1.77;;;;;;;;;;8336024;28;20469;-59
2023/07/05 23:54:26;;;;;;;3.30;1.80;;;;;;;;;;8333659;28;20055;-59
2023/07/05 23:58:26;;;;;;;3.88;1.60;;;;;;;;;;8333255;28;20129;-60
